This is the latest recevied weather packets stored in our database for station/object EA1FWM-12. If no packets are shown the sender has not sent any weather packets the latest 1 day(s).
| Time | Temp. | Humidity | Pressure | Rain* | Wind** | Luminosity | Snow |
|---|---|---|---|---|---|---|---|
| 1778078581 | 21.67° C | 52% | 1016.4 hPa | - | - | - | - |
| 1778074071 | 21.11° C | 55% | 1017.4 hPa | - | - | - | - |
| 1778072271 | 21.11° C | 57% | 1017.5 hPa | - | - | - | - |
| 1778071387 | 21.11° C | 58% | 1017.6 hPa | - | - | - | - |
| 1778068671 | 20° C | 63% | 1018.2 hPa | - | - | - | - |
| 1778067768 | 18.89° C | 67% | 1018.4 hPa | - | - | - | - |
| 1778063269 | 17.78° C | 76% | 1018.7 hPa | - | - | - | - |
| 1778059659 | 14.44° C | 81% | 1018.9 hPa | - | - | - | - |
| 1778057858 | 13.89° C | 84% | 1018.9 hPa | - | - | - | - |
| 1778056059 | 9.44° C | 90% | 1018.8 hPa | - | - | - | - |
| 1778055167 | 7.22° C | 90% | 1018.9 hPa | - | - | - | - |
| 1778054259 | 6.67° C | 89% | 1018.9 hPa | - | - | - | - |
| 1778051550 | 6.67° C | 89% | 1018.8 hPa | - | - | - | - |
| 1778050650 | 6.67° C | 89% | 1018.8 hPa | - | - | - | - |
| 1778047057 | 6.11° C | 89% | 1018.5 hPa | - | - | - | - |
| 1778044558 | 6.11° C | 89% | 1018.5 hPa | - | - | - | - |
| 1778043658 | 6.11° C | 89% | 1018.5 hPa | - | - | - | - |
| 1778042758 | 6.11° C | 89% | 1018.4 hPa | - | - | - | - |
| 1778041858 | 6.11° C | 89% | 1018.4 hPa | - | - | - | - |
| 1778040059 | 5.56° C | 88% | 1018.5 hPa | - | - | - | - |
| 1778039158 | 6.11° C | 88% | 1018.6 hPa | - | - | - | - |
| 1778038259 | 6.11° C | 88% | 1018.6 hPa | - | - | - | - |
| 1778036459 | 6.67° C | 88% | 1018.8 hPa | - | - | - | - |
| 1778035560 | 6.67° C | 88% | 1018.8 hPa | - | - | - | - |
| 1778034661 | 6.67° C | 88% | 1018.9 hPa | - | - | - | - |
* Rain since midnight (hover to see other rain measurements)
** Current wind speed in m/s (hover to see current wind gust speed)